Hungerford, Texas
Current Conditions -  °F | °C
As of 7:35 AM on Sunday 21 Dec 2014 (Local Time) from KARM Reporting Station
Overcast Overcast  
Wind Chill: 51°   Ceiling: 1300
Heat Index: 51°   Visibility: 7mi
Dew Point: 49°   Wind: 3mph
Humidity: 92%   Direction: 350°N
Pressure: 30.14"   Gusts: NA
Location:  29.4°N, 96.08°W
Report Text: KARM 211335Z AUTO 35003KT 7SM BKN013 OVC020 11/09 A3014 RMK AO2 T01050092
Loading
Personal Weather Stations






























Interactive Weather Map New forecast layout! Learn more

10-Day Weather Forecast

Advertisements
Track Severe Weather on mobile